createdAt,value
2022-10-11T00:00:58.672Z,11.41
2022-10-11T00:01:58.597Z,11.38
2022-10-11T00:02:58.614Z,11.40
2022-10-11T00:03:58.629Z,11.40
2022-10-11T00:04:58.641Z,11.26
2022-10-11T00:05:58.726Z,11.35
2022-10-11T00:06:58.676Z,11.26
2022-10-11T00:07:58.685Z,11.23
2022-10-11T00:08:58.703Z,11.18
2022-10-11T00:09:58.718Z,11.13
2022-10-11T00:10:58.732Z,11.08
2022-10-11T00:11:58.748Z,11.10
2022-10-11T00:12:58.762Z,11.00
2022-10-11T00:13:58.779Z,11.05
2022-10-11T00:14:58.795Z,11.08
2022-10-11T00:15:58.807Z,11.01
2022-10-11T00:16:58.823Z,10.95
2022-10-11T00:18:02.123Z,10.95
2022-10-11T00:18:58.859Z,10.80
2022-10-11T00:19:58.867Z,10.86
2022-10-11T00:20:58.886Z,10.84
2022-10-11T00:21:58.897Z,10.83
2022-10-11T00:22:58.913Z,10.76
2022-10-11T00:23:58.928Z,10.80
2022-10-11T00:24:58.942Z,10.76
2022-10-11T00:25:58.958Z,10.79
2022-10-11T00:26:58.973Z,10.67
2022-10-11T00:27:58.988Z,10.72
2022-10-11T00:28:59.004Z,10.67
2022-10-11T00:29:59.018Z,10.69
2022-10-11T00:30:59.036Z,10.61
2022-10-11T00:31:59.046Z,10.58
2022-10-11T00:32:59.062Z,10.55
2022-10-11T00:33:59.075Z,10.51
2022-10-11T00:34:59.090Z,10.53
2022-10-11T00:35:59.104Z,10.49
2022-10-11T00:36:59.119Z,10.38
2022-10-11T00:37:59.139Z,10.43
2022-10-11T00:38:59.150Z,10.45
2022-10-11T00:39:59.182Z,10.45
2022-10-11T00:40:59.188Z,10.46
2022-10-11T00:41:59.193Z,10.36
2022-10-11T00:42:59.207Z,10.34
2022-10-11T00:43:59.235Z,10.27
2022-10-11T00:44:59.264Z,10.27
2022-10-11T00:45:59.253Z,10.30
2022-10-11T00:46:59.266Z,10.27
2022-10-11T00:47:59.281Z,10.23
2022-10-11T00:48:59.294Z,10.27
2022-10-11T00:49:59.322Z,10.20
2022-10-11T00:50:59.325Z,10.23
2022-10-11T00:51:59.338Z,10.09
2022-10-11T00:52:59.352Z,10.18
2022-10-11T00:53:59.368Z,10.13
2022-10-11T00:54:59.385Z,10.10
2022-10-11T00:55:59.397Z,10.09
2022-10-11T00:56:59.412Z,9.99
2022-10-11T00:57:59.425Z,9.99
2022-10-11T00:58:59.439Z,9.95
2022-10-11T00:59:59.455Z,10.02
2022-10-11T01:00:59.499Z,9.94
2022-10-11T01:01:59.483Z,9.87
2022-10-11T01:02:59.500Z,9.91
2022-10-11T01:03:59.512Z,9.92
2022-10-11T01:05:25.359Z,9.88
2022-10-11T01:05:59.547Z,9.82
2022-10-11T01:06:59.556Z,9.77
2022-10-11T01:07:59.570Z,9.77
2022-10-11T01:08:59.584Z,9.77
2022-10-11T01:09:59.597Z,9.72
2022-10-11T01:10:59.611Z,9.70
2022-10-11T01:11:59.628Z,9.69
2022-10-11T01:12:59.648Z,9.59
2022-10-11T01:13:59.653Z,9.58
2022-10-11T01:14:59.672Z,9.52
2022-10-11T01:15:59.693Z,9.54
2022-10-11T01:16:59.697Z,9.47
2022-10-11T01:17:59.711Z,9.49
2022-10-11T01:18:59.726Z,9.42
2022-10-11T01:19:59.738Z,9.36
2022-10-11T01:20:59.752Z,9.30
2022-10-11T01:21:59.769Z,9.34
2022-10-11T01:22:59.780Z,9.39
2022-10-11T01:24:01.770Z,9.37
2022-10-11T01:24:59.810Z,9.29
2022-10-11T01:25:59.823Z,9.30
2022-10-11T01:26:59.838Z,9.19
2022-10-11T01:27:59.854Z,9.19
2022-10-11T01:28:59.865Z,9.16
2022-10-11T01:29:59.879Z,9.18
2022-10-11T01:30:59.893Z,9.11
2022-10-11T01:31:59.909Z,9.18
2022-10-11T01:32:59.921Z,9.13
2022-10-11T01:33:59.939Z,9.15
2022-10-11T01:34:59.947Z,9.03
2022-10-11T01:35:59.964Z,9.12
2022-10-11T01:36:59.979Z,9.12
2022-10-11T01:37:59.994Z,8.97
2022-10-11T01:39:00.002Z,8.96
2022-10-11T01:40:00.020Z,9.00
2022-10-11T01:41:00.039Z,8.96
2022-10-11T01:42:00.049Z,8.93
2022-10-11T01:43:00.060Z,8.92
2022-10-11T01:44:00.093Z,8.84
2022-10-11T01:45:00.094Z,8.87
2022-10-11T01:46:00.101Z,8.89
2022-10-11T01:47:00.115Z,8.79
2022-10-11T01:48:00.140Z,8.79
2022-10-11T01:49:00.144Z,8.90
2022-10-11T01:50:00.158Z,8.87
2022-10-11T01:51:00.167Z,8.77
2022-10-11T01:52:00.184Z,8.78
2022-10-11T01:53:00.197Z,8.75
2022-10-11T01:54:00.210Z,8.77
2022-10-11T01:55:11.010Z,8.68
2022-10-11T01:56:00.238Z,8.71
2022-10-11T01:57:00.250Z,8.66
2022-10-11T01:58:00.265Z,8.64
2022-10-11T01:59:00.281Z,8.60
2022-10-11T02:00:00.296Z,8.57
2022-10-11T02:01:00.343Z,8.56
2022-10-11T02:02:00.320Z,8.57
2022-10-11T02:03:00.334Z,8.57
2022-10-11T02:04:00.348Z,8.57
2022-10-11T02:05:00.362Z,8.59
2022-10-11T02:06:00.374Z,8.50
2022-10-11T02:07:00.389Z,8.50
2022-10-11T02:08:00.402Z,8.50
2022-10-11T02:09:03.281Z,8.50
2022-10-11T02:10:00.428Z,8.54
2022-10-11T02:11:00.443Z,8.57
2022-10-11T02:12:00.455Z,8.54
2022-10-11T02:13:00.468Z,8.45
2022-10-11T02:14:00.481Z,8.56
2022-10-11T02:15:00.494Z,8.44
2022-10-11T02:16:00.514Z,8.49
2022-10-11T02:17:00.521Z,8.44
2022-10-11T02:18:00.537Z,8.42
2022-10-11T02:19:00.549Z,8.41
2022-10-11T02:20:00.563Z,8.39
2022-10-11T02:21:00.576Z,8.44
2022-10-11T02:22:00.590Z,8.41
2022-10-11T02:23:00.602Z,8.35
2022-10-11T02:24:00.620Z,8.28
2022-10-11T02:25:00.629Z,8.42
2022-10-11T02:26:00.647Z,8.34
2022-10-11T02:27:00.657Z,8.24
2022-10-11T02:28:00.669Z,8.26
2022-10-11T02:29:00.681Z,8.27
2022-10-11T02:30:00.697Z,8.27
2022-10-11T02:31:00.709Z,8.23
2022-10-11T02:32:00.722Z,8.28
2022-10-11T02:33:00.736Z,8.23
2022-10-11T02:34:00.748Z,8.28
2022-10-11T02:35:00.763Z,8.18
2022-10-11T02:36:00.810Z,8.26
2022-10-11T02:37:00.788Z,8.18
2022-10-11T02:38:00.808Z,8.26
2022-10-11T02:39:00.817Z,8.20
2022-10-11T02:40:00.828Z,8.21
2022-10-11T02:41:00.844Z,8.17
2022-10-11T02:42:00.854Z,8.24
2022-10-11T02:43:00.868Z,8.08
2022-10-11T02:44:00.883Z,8.20
2022-10-11T02:45:00.893Z,8.06
2022-10-11T02:46:00.946Z,8.06
2022-10-11T02:47:00.922Z,8.06
2022-10-11T02:48:00.939Z,8.11
2022-10-11T02:49:00.951Z,8.09
2022-10-11T02:50:00.964Z,8.09
2022-10-11T02:51:00.975Z,8.08
2022-10-11T02:52:00.987Z,8.08
2022-10-11T02:53:01.000Z,8.09
2022-10-11T02:54:01.017Z,8.09
2022-10-11T02:55:01.028Z,8.03
2022-10-11T02:56:01.167Z,8.09
2022-10-11T02:57:01.053Z,8.03
2022-10-11T02:58:01.076Z,8.09
2022-10-11T02:59:01.083Z,8.08
2022-10-11T03:00:01.093Z,8.08
2022-10-11T03:01:01.106Z,8.05
2022-10-11T03:02:01.221Z,8.03
2022-10-11T03:03:01.146Z,8.08
2022-10-11T03:04:01.152Z,8.05
2022-10-11T03:05:01.163Z,8.03
2022-10-11T03:06:01.397Z,8.06
2022-10-11T03:07:01.184Z,8.06
2022-10-11T03:08:01.196Z,8.03
2022-10-11T03:09:01.221Z,8.02
2022-10-11T03:10:01.228Z,8.06
2022-10-11T03:11:01.235Z,8.05
2022-10-11T03:12:01.249Z,8.09
2022-10-11T03:13:01.262Z,8.06
2022-10-11T03:14:01.275Z,8.05
2022-10-11T03:15:01.289Z,8.14
2022-10-11T03:16:03.558Z,8.11
2022-10-11T03:17:23.801Z,8.11
2022-10-11T03:18:01.329Z,8.21
2022-10-11T03:19:01.342Z,8.09
2022-10-11T03:20:01.353Z,8.05
2022-10-11T03:21:01.366Z,8.18
2022-10-11T03:22:01.380Z,8.09
2022-10-11T03:23:01.393Z,8.18
2022-10-11T03:24:01.406Z,8.08
2022-10-11T03:25:04.320Z,8.20
2022-10-11T03:26:01.615Z,8.09
2022-10-11T03:27:01.449Z,8.17
2022-10-11T03:28:01.459Z,8.18
2022-10-11T03:29:01.472Z,8.16
2022-10-11T03:30:01.506Z,8.18
2022-10-11T03:31:01.497Z,8.21
2022-10-11T03:32:01.510Z,8.20
2022-10-11T03:33:01.522Z,8.28
2022-10-11T03:34:01.554Z,8.31
2022-10-11T03:35:01.562Z,8.14
2022-10-11T03:36:01.715Z,8.26
2022-10-11T03:37:01.576Z,8.26
2022-10-11T03:38:01.590Z,8.20
2022-10-11T03:39:01.601Z,8.27
2022-10-11T03:40:01.616Z,8.26
2022-10-11T03:41:01.627Z,8.32
2022-10-11T03:42:01.641Z,8.27
2022-10-11T03:43:01.653Z,8.26
2022-10-11T03:44:01.667Z,8.31
2022-10-11T03:45:01.679Z,8.27
2022-10-11T03:46:02.026Z,8.27
2022-10-11T03:47:01.708Z,8.31
2022-10-11T03:48:01.720Z,8.28
2022-10-11T03:49:01.731Z,8.27
2022-10-11T03:50:01.749Z,8.27
2022-10-11T03:51:01.759Z,8.32
2022-10-11T03:52:01.771Z,8.28
2022-10-11T03:53:01.784Z,8.27
2022-10-11T03:54:01.798Z,8.28
2022-10-11T03:55:01.813Z,8.26
2022-10-11T03:56:07.316Z,8.23
2022-10-11T03:57:01.837Z,8.27
2022-10-11T03:58:01.850Z,8.20
2022-10-11T03:59:01.863Z,8.23
2022-10-11T04:00:01.877Z,8.13
2022-10-11T04:01:01.888Z,8.23
2022-10-11T04:02:01.996Z,8.23
2022-10-11T04:03:01.918Z,8.18
2022-10-11T04:04:01.928Z,8.20
2022-10-11T04:05:01.948Z,8.23
2022-10-11T04:06:02.230Z,8.23
2022-10-11T04:07:01.970Z,8.17
2022-10-11T04:08:01.987Z,8.13
2022-10-11T04:09:01.995Z,8.21
2022-10-11T04:10:02.008Z,8.23
2022-10-11T04:11:02.024Z,8.21
2022-10-11T04:12:02.037Z,8.20
2022-10-11T04:13:02.052Z,8.17
2022-10-11T04:14:02.059Z,8.09
2022-10-11T04:15:02.073Z,8.09
2022-10-11T04:16:02.569Z,8.09
2022-10-11T04:17:02.099Z,8.09
2022-10-11T04:18:02.112Z,8.09
2022-10-11T04:19:02.125Z,8.13
2022-10-11T04:20:02.138Z,8.13
2022-10-11T04:21:02.151Z,8.06
2022-10-11T04:22:02.163Z,8.05
2022-10-11T04:23:02.177Z,8.11
2022-10-11T04:24:02.189Z,8.09
2022-10-11T04:25:02.201Z,8.09
2022-10-11T04:26:02.438Z,8.13
2022-10-11T04:27:02.229Z,8.11
2022-10-11T04:28:02.245Z,8.06
2022-10-11T04:29:02.254Z,8.08
2022-10-11T04:30:02.273Z,8.09
2022-10-11T04:31:02.282Z,8.06
2022-10-11T04:32:02.293Z,8.03
2022-10-11T04:33:02.307Z,8.05
2022-10-11T04:34:02.321Z,7.98
2022-10-11T04:35:03.364Z,7.99
2022-10-11T04:36:02.729Z,8.02
2022-10-11T04:37:02.360Z,8.03
2022-10-11T04:38:02.371Z,8.01
2022-10-11T04:39:02.385Z,7.98
2022-10-11T04:40:02.397Z,8.02
2022-10-11T04:41:02.408Z,7.98
2022-10-11T04:42:02.424Z,7.95
2022-10-11T04:43:02.438Z,7.99
2022-10-11T04:44:02.450Z,8.01
2022-10-11T04:45:02.464Z,7.90
2022-10-11T04:46:02.475Z,7.98
2022-10-11T04:47:02.487Z,8.02
2022-10-11T04:48:02.504Z,7.96
2022-10-11T04:49:02.512Z,7.93
2022-10-11T04:50:02.532Z,7.93
2022-10-11T04:51:02.539Z,7.99
2022-10-11T04:52:02.550Z,8.03
2022-10-11T04:53:02.563Z,8.02
2022-10-11T04:54:02.578Z,7.93
2022-10-11T04:55:02.594Z,7.98
2022-10-11T04:56:02.802Z,7.98
2022-10-11T04:57:02.616Z,7.93
2022-10-11T04:58:02.633Z,7.99
2022-10-11T04:59:02.641Z,7.96
2022-10-11T05:00:02.656Z,7.88
2022-10-11T05:01:02.667Z,8.01
2022-10-11T05:02:02.782Z,7.88
2022-10-11T05:03:02.693Z,7.93
2022-10-11T05:04:02.704Z,7.91
2022-10-11T05:05:02.719Z,7.91
2022-10-11T05:06:05.668Z,7.87
2022-10-11T05:07:02.744Z,7.90
2022-10-11T05:08:02.761Z,7.95
2022-10-11T05:09:02.771Z,7.95
2022-10-11T05:10:02.784Z,7.90
2022-10-11T05:11:02.797Z,7.91
2022-10-11T05:12:02.808Z,7.95
2022-10-11T05:13:02.821Z,7.91
2022-10-11T05:14:02.835Z,7.85
2022-10-11T05:15:02.849Z,7.95
2022-10-11T05:16:04.883Z,8.01
2022-10-11T05:17:02.874Z,7.88
2022-10-11T05:18:02.936Z,7.85
2022-10-11T05:19:02.898Z,7.95
2022-10-11T05:20:02.911Z,7.95
2022-10-11T05:21:02.926Z,7.84
2022-10-11T05:22:02.940Z,7.87
2022-10-11T05:23:02.953Z,7.88
2022-10-11T05:24:02.963Z,7.83
2022-10-11T05:25:02.995Z,7.90
2022-10-11T05:26:03.234Z,7.84
2022-10-11T05:27:03.664Z,7.84
2022-10-11T05:28:03.011Z,7.85
2022-10-11T05:29:03.105Z,7.87
2022-10-11T05:30:03.052Z,7.90
2022-10-11T05:31:03.067Z,7.84
2022-10-11T05:32:03.065Z,7.84
2022-10-11T05:33:03.079Z,7.90
2022-10-11T05:34:03.089Z,7.85
2022-10-11T05:35:03.105Z,7.83
2022-10-11T05:36:03.502Z,7.83
2022-10-11T05:37:03.130Z,7.90
2022-10-11T05:38:03.143Z,7.72
2022-10-11T05:39:03.154Z,7.77
2022-10-11T05:40:03.163Z,7.84
2022-10-11T05:41:03.180Z,7.81
2022-10-11T05:42:06.516Z,7.93
2022-10-11T05:43:03.204Z,7.87
2022-10-11T05:44:03.217Z,7.90
2022-10-11T05:45:03.230Z,7.87
2022-10-11T05:46:03.643Z,7.85
2022-10-11T05:47:03.255Z,7.83
2022-10-11T05:48:03.268Z,7.84
2022-10-11T05:49:03.281Z,7.81
2022-10-11T05:50:03.295Z,7.83
2022-10-11T05:51:03.312Z,7.87
2022-10-11T05:52:03.325Z,7.95
2022-10-11T05:53:03.332Z,7.87
2022-10-11T05:54:03.348Z,7.84
2022-10-11T05:55:03.364Z,7.87
2022-10-11T05:56:03.520Z,7.85
2022-10-11T05:57:03.384Z,7.88
2022-10-11T05:58:03.399Z,7.88
2022-10-11T05:59:03.412Z,7.87
2022-10-11T06:00:03.423Z,7.93
2022-10-11T06:01:03.522Z,7.87
2022-10-11T06:02:03.449Z,7.87
2022-10-11T06:03:03.462Z,7.88
2022-10-11T06:04:03.474Z,7.98
2022-10-11T06:05:03.491Z,7.98
2022-10-11T06:06:03.564Z,7.90
2022-10-11T06:07:03.514Z,7.93
2022-10-11T06:08:03.528Z,7.98
2022-10-11T06:09:03.539Z,7.93
2022-10-11T06:10:03.551Z,7.96
2022-10-11T06:11:03.565Z,7.96
2022-10-11T06:12:03.577Z,7.95
2022-10-11T06:13:03.589Z,7.98
2022-10-11T06:14:03.603Z,8.03
2022-10-11T06:15:03.617Z,7.99
2022-10-11T06:16:03.912Z,8.01
2022-10-11T06:17:03.643Z,8.03
2022-10-11T06:18:03.656Z,8.02
2022-10-11T06:19:03.672Z,8.08
2022-10-11T06:20:03.680Z,8.11
2022-10-11T06:21:03.693Z,8.13
2022-10-11T06:22:03.706Z,8.14
2022-10-11T06:23:03.719Z,8.11
2022-10-11T06:24:03.735Z,8.06
2022-10-11T06:25:03.746Z,8.11
2022-10-11T06:26:04.046Z,8.14
2022-10-11T06:27:03.773Z,8.08
2022-10-11T06:28:03.784Z,8.18
2022-10-11T06:29:03.800Z,8.23
2022-10-11T06:30:03.811Z,8.20
2022-10-11T06:31:03.825Z,8.18
2022-10-11T06:32:03.837Z,8.28
2022-10-11T06:33:05.016Z,8.18
2022-10-11T06:34:03.866Z,8.28
2022-10-11T06:35:03.880Z,8.27
2022-10-11T06:36:04.118Z,8.32
2022-10-11T06:37:03.903Z,8.24
2022-10-11T06:38:03.916Z,8.28
2022-10-11T06:39:03.929Z,8.27
2022-10-11T06:40:03.942Z,8.26
2022-10-11T06:41:03.955Z,8.41
2022-10-11T06:42:03.971Z,8.34
2022-10-11T06:43:03.990Z,8.39
2022-10-11T06:44:03.996Z,8.39
2022-10-11T06:45:04.008Z,8.34
2022-10-11T06:46:04.279Z,8.39
2022-10-11T06:47:04.035Z,8.50
2022-10-11T06:48:04.050Z,8.42
2022-10-11T06:49:04.064Z,8.45
2022-10-11T06:50:04.077Z,8.46
2022-10-11T06:51:04.088Z,8.54
2022-10-11T06:52:04.106Z,8.56
2022-10-11T06:53:04.115Z,8.56
2022-10-11T06:54:04.129Z,8.57
2022-10-11T06:55:04.141Z,8.59
2022-10-11T06:56:04.309Z,8.53
2022-10-11T06:57:04.170Z,8.60
2022-10-11T06:58:04.183Z,8.57
2022-10-11T06:59:04.195Z,8.59
2022-10-11T07:00:05.559Z,8.68
2022-10-11T07:01:04.266Z,8.74
2022-10-11T07:02:04.240Z,8.61
2022-10-11T07:03:04.249Z,8.69
2022-10-11T07:04:04.265Z,8.75
2022-10-11T07:05:04.276Z,8.77
2022-10-11T07:06:04.501Z,8.71
2022-10-11T07:07:04.306Z,8.74
2022-10-11T07:08:04.318Z,8.77
2022-10-11T07:09:04.331Z,8.79
2022-10-11T07:10:04.344Z,8.81
2022-10-11T07:11:04.357Z,8.87
2022-10-11T07:12:04.370Z,8.87
2022-10-11T07:13:04.389Z,8.75
2022-10-11T07:14:04.398Z,8.84
2022-10-11T07:15:04.412Z,8.84
2022-10-11T07:16:04.730Z,8.92
2022-10-11T07:17:04.439Z,8.93
2022-10-11T07:18:04.454Z,8.96
2022-10-11T07:19:04.479Z,8.89
2022-10-11T07:20:04.491Z,9.03
2022-10-11T07:21:04.498Z,9.02
2022-10-11T07:22:04.509Z,9.08
2022-10-11T07:23:04.522Z,9.05
2022-10-11T07:24:04.533Z,9.09
2022-10-11T07:25:04.548Z,9.13
2022-10-11T07:26:04.915Z,9.12
2022-10-11T07:27:04.579Z,9.16
2022-10-11T07:28:04.588Z,9.18
2022-10-11T07:29:04.668Z,9.12
2022-10-11T07:30:04.619Z,9.18
2022-10-11T07:31:04.634Z,9.19
2022-10-11T07:32:04.647Z,9.15
2022-10-11T07:33:04.658Z,9.19
2022-10-11T07:34:04.683Z,9.18
2022-10-11T07:35:04.686Z,9.18
2022-10-11T07:36:05.065Z,9.29
2022-10-11T07:37:04.715Z,9.33
2022-10-11T07:38:04.729Z,9.26
2022-10-11T07:39:04.742Z,9.34
2022-10-11T07:40:04.765Z,9.34
2022-10-11T07:41:04.769Z,9.33
2022-10-11T07:42:04.788Z,9.31
2022-10-11T07:43:04.800Z,9.33
2022-10-11T07:44:04.814Z,9.45
2022-10-11T07:45:04.827Z,9.55
2022-10-11T07:46:05.373Z,9.48
2022-10-11T07:47:08.948Z,9.44
2022-10-11T07:48:04.872Z,9.52
2022-10-11T07:49:04.905Z,9.48
2022-10-11T07:50:04.907Z,9.48
2022-10-11T07:51:04.913Z,9.56
2022-10-11T07:52:04.924Z,9.52
2022-10-11T07:53:04.948Z,9.62
2022-10-11T07:54:07.208Z,9.59
2022-10-11T07:55:04.968Z,9.62
2022-10-11T07:56:05.135Z,9.64
2022-10-11T07:57:04.998Z,9.72
2022-10-11T07:58:05.009Z,9.70
2022-10-11T07:59:05.035Z,9.69
2022-10-11T08:00:05.041Z,9.74
2022-10-11T08:01:05.078Z,9.70
2022-10-11T08:02:05.068Z,9.70
2022-10-11T08:03:05.082Z,9.84
2022-10-11T08:04:05.099Z,9.81
2022-10-11T08:05:05.114Z,9.88
2022-10-11T08:06:05.374Z,9.87
2022-10-11T08:07:05.139Z,9.92
2022-10-11T08:08:05.159Z,9.94
2022-10-11T08:09:05.168Z,10.00
2022-10-11T08:10:05.186Z,9.97
2022-10-11T08:11:05.196Z,9.95
2022-10-11T08:12:05.209Z,9.95
2022-10-11T08:13:05.227Z,10.03
2022-10-11T08:14:05.239Z,9.97
2022-10-11T08:15:05.256Z,10.10
2022-10-11T08:16:05.526Z,10.10
2022-10-11T08:17:05.284Z,10.12
2022-10-11T08:18:05.299Z,10.13
2022-10-11T08:19:05.312Z,10.15
2022-10-11T08:20:05.350Z,10.21
2022-10-11T08:21:05.342Z,10.18
2022-10-11T08:22:05.357Z,10.28
2022-10-11T08:23:05.387Z,10.30
2022-10-11T08:24:05.385Z,10.24
2022-10-11T08:25:05.398Z,10.25
2022-10-11T08:26:05.658Z,10.31
2022-10-11T08:27:05.428Z,10.33
2022-10-11T08:28:05.455Z,10.36
2022-10-11T08:29:05.528Z,10.33
2022-10-11T08:30:05.485Z,10.39
2022-10-11T08:31:05.495Z,10.33
2022-10-11T08:32:05.504Z,10.38
2022-10-11T08:33:08.608Z,10.46
2022-10-11T08:34:05.535Z,10.45
2022-10-11T08:35:05.549Z,10.49
2022-10-11T08:36:05.921Z,10.49
2022-10-11T08:37:05.577Z,10.48
2022-10-11T08:38:05.606Z,10.49
2022-10-11T08:39:05.608Z,10.59
2022-10-11T08:40:05.625Z,10.59
2022-10-11T08:41:05.638Z,10.64
2022-10-11T08:42:05.652Z,10.67
2022-10-11T08:43:05.670Z,10.72
2022-10-11T08:44:05.686Z,10.67
2022-10-11T08:45:11.095Z,10.72
2022-10-11T08:46:05.941Z,10.71
2022-10-11T08:47:05.732Z,10.79
2022-10-11T08:48:05.744Z,10.79
2022-10-11T08:49:05.772Z,10.77
2022-10-11T08:50:05.775Z,10.83
2022-10-11T08:51:05.798Z,10.77
2022-10-11T08:52:05.804Z,10.79
2022-10-11T08:53:05.820Z,10.84
2022-10-11T08:54:07.791Z,10.89
2022-10-11T08:55:05.851Z,10.97
2022-10-11T08:56:06.093Z,11.02
2022-10-11T08:57:05.880Z,11.02
2022-10-11T08:58:05.943Z,11.08
2022-10-11T08:59:05.921Z,11.00
2022-10-11T09:00:05.928Z,11.15
2022-10-11T09:01:06.036Z,11.18
2022-10-11T09:02:05.963Z,11.16
2022-10-11T09:03:09.716Z,11.19
2022-10-11T09:04:05.990Z,11.18
2022-10-11T09:05:06.003Z,11.31
2022-10-11T09:06:06.229Z,11.34
2022-10-11T09:07:06.035Z,11.23
2022-10-11T09:08:06.051Z,11.35
2022-10-11T09:09:06.070Z,11.31
2022-10-11T09:10:06.082Z,11.40
2022-10-11T09:11:06.097Z,11.41
2022-10-11T09:12:06.120Z,11.48
2022-10-11T09:13:06.127Z,11.55
2022-10-11T09:14:06.150Z,11.52
2022-10-11T09:15:06.161Z,11.53
2022-10-11T09:16:06.623Z,11.65
2022-10-11T09:17:06.189Z,11.73
2022-10-11T09:18:06.207Z,11.71
2022-10-11T09:19:06.225Z,11.73
2022-10-11T09:20:06.239Z,11.65
2022-10-11T09:21:06.255Z,11.80
2022-10-11T09:22:06.272Z,11.77
2022-10-11T09:23:06.289Z,11.86
2022-10-11T09:24:06.302Z,11.81
2022-10-11T09:25:06.318Z,11.85
2022-10-11T09:26:06.493Z,11.95
2022-10-11T09:27:06.353Z,11.91
2022-10-11T09:28:06.367Z,11.88
2022-10-11T09:29:06.473Z,11.97
2022-10-11T09:30:06.402Z,12.03
2022-10-11T09:31:06.424Z,12.12
2022-10-11T09:32:06.429Z,12.08
2022-10-11T09:33:06.448Z,12.11
2022-10-11T09:34:06.462Z,12.18
2022-10-11T09:35:06.482Z,12.17
2022-10-11T09:36:06.706Z,12.21
2022-10-11T09:37:06.513Z,12.28
2022-10-11T09:38:06.528Z,12.30
2022-10-11T09:39:06.904Z,12.29
2022-10-11T09:40:06.561Z,12.36
2022-10-11T09:41:06.576Z,12.37
2022-10-11T09:42:06.594Z,12.47
2022-10-11T09:43:06.613Z,12.55
2022-10-11T09:44:06.631Z,12.55
2022-10-11T09:45:06.643Z,12.58
2022-10-11T09:46:07.045Z,12.61
2022-10-11T09:47:06.678Z,12.68
2022-10-11T09:48:06.696Z,12.57
2022-10-11T09:49:06.710Z,12.66
2022-10-11T09:50:06.729Z,12.80
2022-10-11T09:51:06.743Z,12.76
2022-10-11T09:52:06.760Z,12.87
2022-10-11T09:53:06.776Z,12.72
2022-10-11T09:54:06.804Z,12.76
2022-10-11T09:55:06.818Z,12.83
2022-10-11T09:56:07.122Z,12.83
2022-10-11T09:57:06.845Z,12.86
2022-10-11T09:58:06.873Z,13.01
2022-10-11T09:59:06.891Z,12.93
2022-10-11T10:00:06.897Z,12.94
2022-10-11T10:01:08.274Z,13.06
2022-10-11T10:02:07.030Z,12.99
2022-10-11T10:03:06.946Z,12.98
2022-10-11T10:04:06.960Z,13.13
2022-10-11T10:05:06.981Z,13.16
2022-10-11T10:06:07.447Z,13.12
2022-10-11T10:07:07.013Z,13.13
2022-10-11T10:08:07.029Z,13.11
2022-10-11T10:09:07.048Z,13.21
2022-10-11T10:10:07.065Z,13.23
2022-10-11T10:11:07.082Z,13.23
2022-10-11T10:12:07.098Z,13.27
2022-10-11T10:13:07.115Z,13.24
2022-10-11T10:14:07.133Z,13.33
2022-10-11T10:15:07.163Z,13.33
2022-10-11T10:16:07.528Z,13.40
2022-10-11T10:17:07.187Z,13.42
2022-10-11T10:18:07.208Z,13.49
2022-10-11T10:19:07.223Z,13.47
2022-10-11T10:20:07.237Z,13.57
2022-10-11T10:21:07.288Z,13.58
2022-10-11T10:22:07.273Z,13.58
2022-10-11T10:23:07.311Z,13.67
2022-10-11T10:24:07.313Z,13.62
2022-10-11T10:25:07.323Z,13.65
2022-10-11T10:26:07.774Z,13.76
2022-10-11T10:27:07.358Z,13.82
2022-10-11T10:28:07.408Z,13.78
2022-10-11T10:29:07.397Z,13.87
2022-10-11T10:30:07.416Z,13.83
2022-10-11T10:31:07.433Z,13.97
2022-10-11T10:32:14.235Z,13.98
2022-10-11T10:33:07.466Z,14.01
2022-10-11T10:34:07.483Z,13.95
2022-10-11T10:35:07.504Z,14.11
2022-10-11T10:36:08.109Z,14.04
2022-10-11T10:37:07.538Z,14.07
2022-10-11T10:38:07.556Z,14.23
2022-10-11T10:39:07.573Z,14.25
2022-10-11T10:40:07.589Z,14.18
2022-10-11T10:41:07.608Z,14.30
2022-10-11T10:42:07.628Z,14.33
2022-10-11T10:43:07.646Z,14.48
2022-10-11T10:44:07.664Z,14.41
2022-10-11T10:45:12.131Z,14.53
2022-10-11T10:46:08.021Z,14.56
2022-10-11T10:47:07.717Z,14.61
2022-10-11T10:48:07.734Z,14.61
2022-10-11T10:50:07.772Z,14.79
2022-10-11T10:51:10.431Z,14.97
2022-10-11T10:52:07.810Z,15.00
2022-10-11T10:53:07.828Z,15.05
2022-10-11T10:54:07.848Z,15.10
2022-10-11T10:55:07.865Z,15.32
2022-10-11T10:56:08.070Z,15.39
2022-10-11T10:57:07.902Z,15.39
2022-10-11T10:58:07.923Z,15.50
2022-10-11T10:59:07.941Z,15.54
2022-10-11T11:00:07.968Z,15.60
2022-10-11T11:01:07.980Z,15.62
2022-10-11T11:02:28.153Z,15.63
2022-10-11T11:03:08.018Z,15.59
2022-10-11T11:04:08.039Z,15.59
2022-10-11T11:05:08.056Z,15.66
2022-10-11T11:06:08.345Z,15.67
2022-10-11T11:07:08.100Z,15.69
2022-10-11T11:08:08.118Z,15.72
2022-10-11T11:09:08.134Z,15.73
2022-10-11T11:10:08.154Z,15.76
2022-10-11T11:11:08.174Z,15.92
2022-10-11T11:12:08.195Z,15.98
2022-10-11T11:13:08.215Z,16.00
2022-10-11T11:14:08.235Z,16.02
2022-10-11T11:15:08.252Z,16.06
2022-10-11T11:16:08.438Z,16.13
2022-10-11T11:17:08.292Z,16.16
2022-10-11T11:18:08.312Z,16.10
2022-10-11T11:19:08.330Z,16.12
2022-10-11T11:20:08.349Z,16.18
2022-10-11T11:21:08.370Z,16.17
2022-10-11T11:22:08.392Z,16.18
2022-10-11T11:23:08.411Z,16.26
2022-10-11T11:24:08.427Z,16.17
2022-10-11T11:25:08.450Z,16.22
2022-10-11T11:26:08.757Z,16.24
2022-10-11T11:27:08.488Z,16.26
2022-10-11T11:28:08.581Z,16.32
2022-10-11T11:29:08.527Z,16.34
2022-10-11T11:30:08.549Z,16.36
2022-10-11T11:31:08.897Z,16.47
2022-10-11T11:32:08.589Z,16.36
2022-10-11T11:33:08.609Z,16.29
2022-10-11T11:34:08.628Z,16.39
2022-10-11T11:35:08.648Z,16.37
2022-10-11T11:36:08.870Z,16.34
2022-10-11T11:37:08.688Z,16.37
2022-10-11T11:38:08.708Z,16.39
2022-10-11T11:39:08.739Z,16.41
2022-10-11T11:40:08.755Z,16.36
2022-10-11T11:41:09.059Z,16.46
2022-10-11T11:42:08.787Z,16.31
2022-10-11T11:43:08.816Z,16.36
2022-10-11T11:44:08.828Z,16.36
2022-10-11T11:45:08.848Z,16.39
2022-10-11T11:46:08.866Z,16.26
2022-10-11T11:47:08.891Z,16.21
2022-10-11T11:48:08.908Z,16.22
2022-10-11T11:49:12.838Z,16.18
2022-10-11T11:50:08.950Z,16.08
2022-10-11T11:51:09.118Z,16.16
2022-10-11T11:52:08.985Z,16.08
2022-10-11T11:53:09.005Z,15.99
2022-10-11T11:54:09.024Z,16.02
2022-10-11T11:55:09.044Z,15.90
2022-10-11T11:56:09.062Z,15.94
2022-10-11T11:57:09.085Z,15.92
2022-10-11T11:58:09.104Z,15.99
2022-10-11T11:59:09.124Z,16.02
2022-10-11T12:00:09.149Z,16.03
2022-10-11T12:01:09.352Z,16.03
2022-10-11T12:02:09.242Z,16.09
2022-10-11T12:03:09.201Z,16.21
2022-10-11T12:04:09.220Z,16.12
2022-10-11T12:05:09.238Z,16.21
2022-10-11T12:06:09.261Z,16.17
2022-10-11T12:07:16.233Z,16.22
2022-10-11T12:08:09.298Z,16.32
2022-10-11T12:09:09.316Z,16.31
2022-10-11T12:10:09.340Z,16.31
2022-10-11T12:11:09.358Z,16.29
2022-10-11T12:12:09.375Z,16.32
2022-10-11T12:13:09.398Z,16.29
2022-10-11T12:14:09.417Z,16.37
2022-10-11T12:15:09.438Z,16.26
2022-10-11T12:16:09.455Z,16.32
2022-10-11T12:17:09.476Z,16.24
2022-10-11T12:18:09.495Z,16.36
2022-10-11T12:19:09.515Z,16.29
2022-10-11T12:20:09.535Z,16.34
2022-10-11T12:21:09.766Z,16.36
2022-10-11T12:22:09.574Z,16.29
2022-10-11T12:23:09.595Z,16.26
2022-10-11T12:24:09.613Z,16.25
2022-10-11T12:25:09.635Z,16.25
2022-10-11T12:26:09.654Z,16.22
2022-10-11T12:27:09.675Z,16.25
2022-10-11T12:28:09.747Z,16.21
2022-10-11T12:29:09.713Z,16.06
2022-10-11T12:30:09.754Z,16.13
2022-10-11T12:31:09.752Z,16.02
2022-10-11T12:32:09.770Z,16.02
2022-10-11T12:33:09.792Z,16.03
2022-10-11T12:34:09.814Z,15.96
2022-10-11T12:35:09.828Z,15.92
2022-10-11T12:36:10.077Z,15.94
2022-10-11T12:37:09.869Z,15.84
2022-10-11T12:38:09.887Z,15.75
2022-10-11T12:39:09.905Z,15.84
2022-10-11T12:40:09.965Z,15.75
2022-10-11T12:41:09.944Z,15.76
2022-10-11T12:42:09.963Z,15.73
2022-10-11T12:43:09.983Z,15.69
2022-10-11T12:44:10.001Z,15.63
2022-10-11T12:45:10.020Z,15.73
2022-10-11T12:46:10.040Z,15.72
2022-10-11T12:47:10.058Z,15.66
2022-10-11T12:48:10.079Z,15.63
2022-10-11T12:49:10.097Z,15.69
2022-10-11T12:50:10.158Z,15.63
2022-10-11T12:51:10.137Z,15.65
2022-10-11T12:52:10.157Z,15.67
2022-10-11T12:53:10.175Z,15.78
2022-10-11T12:54:26.028Z,15.83
2022-10-11T12:55:10.212Z,15.70
2022-10-11T12:56:10.231Z,15.76
2022-10-11T12:57:12.322Z,15.87
2022-10-11T12:58:10.274Z,15.91
2022-10-11T12:59:10.300Z,15.87
2022-10-11T13:00:10.308Z,15.98
2022-10-11T13:01:10.371Z,16.02
2022-10-11T13:02:10.348Z,16.05
2022-10-11T13:03:10.372Z,16.10
2022-10-11T13:04:10.387Z,16.12
2022-10-11T13:05:10.408Z,16.26
2022-10-11T13:06:10.924Z,16.22
2022-10-11T13:07:10.450Z,16.36
2022-10-11T13:08:10.465Z,16.31